Time;durP1;ratioP1;P1;durP2;ratioP2;P2;SDS_P1;SDS_P2;PMS_P1;PMS_P2;Temp;Humidity;BMP_temperature;BMP_pressure;BME280_temperature;BME280_humidity;BME280_pressure;Samples;Min_cycle;Max_cycle;Signal;HPM_P1;HPM_P2
2021/12/30 00:01:51;;;;;;;1.67;1.17;;;11.90;98.20;;;;;;5012678;28;20487;-72
2021/12/30 00:04:18;;;;;;;1.60;1.10;;;11.80;98.20;;;;;;5025110;28;20459;-72
2021/12/30 00:06:44;;;;;;;1.70;1.20;;;11.80;98.20;;;;;;5018157;28;20577;-72
2021/12/30 00:09:15;;;;;;;1.60;1.10;;;11.80;98.20;;;;;;5025166;28;20464;-72
2021/12/30 00:11:42;;;;;;;1.67;1.10;;;11.80;98.20;;;;;;5011902;28;21062;-72
2021/12/30 00:14:09;;;;;;;1.70;1.13;;;11.80;98.20;;;;;;5024172;28;20487;-72
2021/12/30 00:16:38;;;;;;;1.60;1.10;;;11.80;98.20;;;;;;5014701;28;20871;-72
2021/12/30 00:19:06;;;;;;;1.67;1.17;;;11.90;98.20;;;;;;5024986;28;20473;-72
2021/12/30 00:21:33;;;;;;;1.70;1.20;;;11.90;98.20;;;;;;5014436;28;20915;-71
2021/12/30 00:24:00;;;;;;;1.63;1.10;;;11.90;98.20;;;;;;5029038;28;20565;-72
2021/12/30 00:26:27;;;;;;;1.60;1.10;;;11.90;98.20;;;;;;5016804;28;20485;-72
2021/12/30 00:28:54;;;;;;;1.60;1.00;;;11.90;98.20;;;;;;5026715;28;20459;-72
2021/12/30 00:31:20;;;;;;;1.70;1.30;;;11.90;98.20;;;;;;5017299;28;20508;-72
2021/12/30 00:33:49;;;;;;;1.60;1.10;;;11.90;98.20;;;;;;5032069;28;20463;-71
2021/12/30 00:36:16;;;;;;;1.60;1.00;;;11.90;98.20;;;;;;5018112;28;21002;-71
2021/12/30 00:38:44;;;;;;;1.70;1.20;;;11.90;98.20;;;;;;5036295;28;20460;-72
2021/12/30 00:41:12;;;;;;;1.60;1.10;;;11.90;98.20;;;;;;5016199;28;20496;-72
2021/12/30 00:43:39;;;;;;;1.63;1.13;;;11.90;98.20;;;;;;5037022;28;20463;-72
2021/12/30 00:46:07;;;;;;;1.60;1.10;;;11.90;98.20;;;;;;5016475;28;20758;-71
2021/12/30 00:48:35;;;;;;;1.60;1.00;;;11.90;98.20;;;;;;5031912;28;20877;-72
2021/12/30 00:51:03;;;;;;;1.63;1.10;;;11.90;98.20;;;;;;5007564;28;20481;-71
2021/12/30 00:53:32;;;;;;;1.63;1.07;;;11.90;98.20;;;;;;5023002;28;20463;-71
2021/12/30 00:55:59;;;;;;;1.63;1.10;;;11.90;98.20;;;;;;5010772;28;20564;-71
2021/12/30 00:58:27;;;;;;;1.67;1.13;;;11.90;98.20;;;;;;5029786;28;20779;-71
2021/12/30 01:00:54;;;;;;;1.63;1.10;;;11.90;98.20;;;;;;5006833;28;20504;-72
2021/12/30 01:03:22;;;;;;;1.63;1.10;;;11.90;98.20;;;;;;5024595;28;20467;-71
2021/12/30 01:05:49;;;;;;;1.67;1.10;;;11.90;98.20;;;;;;5017997;28;20467;-71
2021/12/30 01:08:18;;;;;;;1.60;1.10;;;11.90;98.20;;;;;;5032326;28;20558;-71
2021/12/30 01:10:46;;;;;;;1.60;1.00;;;12.00;98.20;;;;;;5022768;28;20648;-71
2021/12/30 01:13:18;;;;;;;1.67;1.10;;;12.00;98.20;;;;;;5025572;28;20495;-71
2021/12/30 01:15:55;;;;;;;1.70;1.20;;;12.00;98.20;;;;;;5041847;28;20797;-71
2021/12/30 01:18:28;;;;;;;1.60;1.10;;;12.00;98.20;;;;;;5028723;28;20604;-71
2021/12/30 01:20:55;;;;;;;1.67;1.10;;;12.00;98.20;;;;;;5030883;28;20491;-71
2021/12/30 01:23:24;;;;;;;1.60;1.10;;;12.00;98.20;;;;;;5057152;28;20477;-71
2021/12/30 01:25:51;;;;;;;1.67;1.10;;;12.00;98.20;;;;;;5032800;28;20998;-71
2021/12/30 01:28:18;;;;;;;1.60;1.07;;;12.00;98.20;;;;;;5057779;28;20463;-71
2021/12/30 01:30:46;;;;;;;1.67;1.20;;;12.00;98.20;;;;;;5042339;28;20506;-71
2021/12/30 01:33:13;;;;;;;1.60;1.03;;;12.00;98.20;;;;;;5030320;28;20506;-71
2021/12/30 01:35:40;;;;;;;1.60;1.00;;;12.00;98.20;;;;;;5042898;28;20516;-71
2021/12/30 01:38:11;;;;;;;1.63;1.10;;;12.00;98.20;;;;;;5041541;28;21068;-71
2021/12/30 01:40:42;;;;;;;1.63;1.10;;;12.10;98.20;;;;;;5043961;28;20497;-71
2021/12/30 01:43:10;;;;;;;1.70;1.20;;;12.10;98.20;;;;;;5045299;28;20490;-71
2021/12/30 01:45:38;;;;;;;1.70;1.30;;;12.10;98.20;;;;;;5042897;28;20459;-71
2021/12/30 01:48:05;;;;;;;1.63;1.10;;;12.10;98.20;;;;;;5041397;28;21040;-71
2021/12/30 01:50:32;;;;;;;1.60;1.10;;;12.10;98.20;;;;;;5043521;28;20688;-71
2021/12/30 01:52:59;;;;;;;1.60;1.10;;;12.10;98.20;;;;;;5046479;28;20493;-71
2021/12/30 01:55:26;;;;;;;1.70;1.20;;;12.10;98.20;;;;;;5039774;28;20873;-71
2021/12/30 01:57:55;;;;;;;1.63;1.10;;;12.20;98.20;;;;;;5045482;28;20481;-71
2021/12/30 02:00:24;;;;;;;1.70;1.10;;;12.10;98.20;;;;;;5036456;28;20532;-71
2021/12/30 02:02:52;;;;;;;1.70;1.10;;;12.10;98.20;;;;;;5042244;28;20519;-71
2021/12/30 02:05:19;;;;;;;1.70;1.20;;;12.10;98.20;;;;;;5036742;28;20990;-71
2021/12/30 02:07:46;;;;;;;1.67;1.07;;;12.10;98.20;;;;;;5033488;28;20986;-71
2021/12/30 02:10:14;;;;;;;1.60;1.10;;;12.10;98.20;;;;;;5041919;28;20728;-71
2021/12/30 02:12:46;;;;;;;1.60;1.10;;;12.10;98.20;;;;;;5034155;28;20492;-71
2021/12/30 02:15:17;;;;;;;1.60;1.10;;;12.10;98.20;;;;;;5036523;28;20831;-71
2021/12/30 02:17:45;;;;;;;1.70;1.10;;;12.10;98.20;;;;;;5049973;28;20504;-71
2021/12/30 02:20:47;;;;;;;1.60;1.00;;;12.10;98.20;;;;;;5039165;28;20478;-71
2021/12/30 02:23:17;;;;;;;1.60;1.10;;;12.10;98.20;;;;;;5013420;28;20488;-71
2021/12/30 02:25:44;;;;;;;1.63;1.10;;;12.10;98.20;;;;;;5019214;28;20456;-71
2021/12/30 02:28:13;;;;;;;2.73;2.23;;;12.20;98.20;;;;;;5032924;28;21880;-71
2021/12/30 02:30:42;;;;;;;1.70;1.20;;;12.20;98.20;;;;;;5046940;28;20474;-71
2021/12/30 02:33:09;;;;;;;1.60;1.10;;;12.20;98.20;;;;;;5030470;28;20506;-71
2021/12/30 02:35:37;;;;;;;1.60;1.10;;;12.20;98.20;;;;;;5040258;28;20629;-71
2021/12/30 02:38:05;;;;;;;1.60;1.10;;;12.30;98.20;;;;;;5024865;28;20492;-71
2021/12/30 02:40:35;;;;;;;1.60;1.00;;;12.30;98.20;;;;;;5038836;28;20572;-71
2021/12/30 02:43:03;;;;;;;1.67;1.10;;;12.30;98.20;;;;;;5049712;28;20489;-71
2021/12/30 02:45:30;;;;;;;1.60;1.10;;;12.30;98.20;;;;;;5031208;28;20486;-71
2021/12/30 02:47:57;;;;;;;1.70;1.10;;;12.30;98.20;;;;;;5050700;28;20829;-71
2021/12/30 02:50:23;;;;;;;1.70;1.23;;;12.40;98.20;;;;;;5034762;28;20493;-71
2021/12/30 02:52:52;;;;;;;1.67;1.20;;;12.40;98.20;;;;;;5049629;28;21014;-71
2021/12/30 02:55:19;;;;;;;1.60;1.10;;;12.40;98.20;;;;;;5041727;28;21021;-72
2021/12/30 02:57:46;;;;;;;1.60;1.03;;;12.50;98.20;;;;;;5048635;28;20481;-71
2021/12/30 03:00:14;;;;;;;1.67;1.20;;;12.50;98.20;;;;;;5037211;28;20474;-71
2021/12/30 03:02:41;;;;;;;1.60;1.07;;;12.50;98.20;;;;;;5045174;28;20555;-72
2021/12/30 03:05:09;;;;;;;1.60;1.10;;;12.50;98.20;;;;;;5038497;28;20470;-71
2021/12/30 03:07:37;;;;;;;1.60;1.10;;;12.60;98.20;;;;;;5048512;28;20469;-71
2021/12/30 03:10:13;;;;;;;1.60;1.00;;;12.60;98.20;;;;;;5040800;28;20478;-72
2021/12/30 03:12:40;;;;;;;1.63;1.07;;;12.60;98.20;;;;;;5028460;28;20967;-71
2021/12/30 03:15:07;;;;;;;1.60;1.00;;;12.60;98.20;;;;;;5040025;28;20494;-71
2021/12/30 03:17:37;;;;;;;1.60;1.10;;;12.70;98.20;;;;;;5048839;28;20565;-71
2021/12/30 03:20:09;;;;;;;1.70;1.20;;;12.60;98.20;;;;;;5043426;28;20494;-71
2021/12/30 03:22:36;;;;;;;1.70;1.20;;;12.70;98.20;;;;;;5040483;28;20526;-71
2021/12/30 03:25:06;;;;;;;1.70;1.17;;;12.70;98.20;;;;;;5043733;28;20571;-71
2021/12/30 03:27:34;;;;;;;1.60;1.10;;;12.70;98.20;;;;;;5046888;28;20560;-71
2021/12/30 03:30:01;;;;;;;1.63;1.10;;;12.60;98.20;;;;;;5045625;28;20482;-71
2021/12/30 03:32:28;;;;;;;1.63;1.10;;;12.70;98.20;;;;;;5028091;28;20478;-71
2021/12/30 03:34:55;;;;;;;1.70;1.10;;;12.70;98.20;;;;;;5038144;28;20483;-71
2021/12/30 03:37:22;;;;;;;1.70;1.10;;;12.70;98.20;;;;;;5043804;28;20473;-71
2021/12/30 03:39:49;;;;;;;1.70;1.20;;;12.70;98.20;;;;;;5044383;28;20557;-71
2021/12/30 03:42:18;;;;;;;1.70;1.23;;;12.70;98.20;;;;;;5030052;28;20478;-70
2021/12/30 03:44:46;;;;;;;1.63;1.10;;;12.70;98.20;;;;;;5039929;28;20464;-71
2021/12/30 03:47:16;;;;;;;1.70;1.10;;;12.70;98.20;;;;;;5044246;28;20500;-71
2021/12/30 03:49:45;;;;;;;1.63;1.10;;;12.70;98.20;;;;;;5041812;28;20462;-70
2021/12/30 03:52:15;;;;;;;1.70;1.20;;;12.70;98.20;;;;;;5044785;28;20923;-71
2021/12/30 03:54:42;;;;;;;1.70;1.20;;;12.70;98.20;;;;;;5050079;28;20458;-70
2021/12/30 03:57:09;;;;;;;1.70;1.20;;;12.70;98.20;;;;;;5045724;28;20484;-70
2021/12/30 03:59:38;;;;;;;1.63;1.07;;;12.70;98.20;;;;;;5050788;28;20478;-71
2021/12/30 04:02:05;;;;;;;1.63;1.10;;;12.70;98.20;;;;;;5034182;28;20497;-71
2021/12/30 04:04:33;;;;;;;1.70;1.20;;;12.70;98.20;;;;;;5044637;28;20462;-72
2021/12/30 04:07:01;;;;;;;1.67;1.10;;;12.70;98.20;;;;;;5036732;28;20565;-72
2021/12/30 04:09:28;;;;;;;1.60;1.10;;;12.70;98.20;;;;;;5044183;28;20471;-71
2021/12/30 04:11:55;;;;;;;1.60;1.00;;;12.70;98.20;;;;;;5033732;28;20573;-71
2021/12/30 04:14:26;;;;;;;1.70;1.10;;;12.70;98.20;;;;;;5045748;28;20973;-71
2021/12/30 04:16:54;;;;;;;1.60;1.00;;;12.70;98.20;;;;;;5034607;28;20747;-72
2021/12/30 04:19:21;;;;;;;1.60;1.10;;;12.70;98.20;;;;;;5042235;28;20471;-72
2021/12/30 04:21:53;;;;;;;1.60;1.00;;;12.70;98.20;;;;;;5045544;28;20477;-73
2021/12/30 04:24:20;;;;;;;1.60;1.00;;;12.70;98.20;;;;;;5053940;28;20462;-73
2021/12/30 04:26:47;;;;;;;1.63;1.10;;;12.70;98.20;;;;;;5045658;28;20473;-72
2021/12/30 04:29:14;;;;;;;1.60;1.00;;;12.80;98.20;;;;;;5052048;28;20471;-72
2021/12/30 04:31:41;;;;;;;1.63;1.07;;;12.80;98.20;;;;;;5037071;28;20493;-72
2021/12/30 04:34:09;;;;;;;1.70;1.20;;;12.80;98.20;;;;;;5043669;28;20983;-72
2021/12/30 04:36:37;;;;;;;1.70;1.20;;;12.80;98.20;;;;;;5039715;28;20484;-72
2021/12/30 04:39:04;;;;;;;1.70;1.20;;;12.80;98.20;;;;;;5055389;28;20487;-72
2021/12/30 04:41:31;;;;;;;1.63;1.07;;;12.80;98.20;;;;;;5035648;28;20971;-72
2021/12/30 04:43:58;;;;;;;1.70;1.20;;;12.80;98.20;;;;;;5041272;28;20474;-72
2021/12/30 04:46:24;;;;;;;1.63;1.10;;;12.80;98.20;;;;;;5041518;28;20610;-72
2021/12/30 04:48:52;;;;;;;1.60;1.10;;;12.80;98.20;;;;;;5056948;28;20832;-71
2021/12/30 04:51:20;;;;;;;1.70;1.10;;;12.80;98.20;;;;;;5036187;28;20482;-72
2021/12/30 04:53:48;;;;;;;1.60;1.10;;;12.90;98.20;;;;;;5058996;28;20462;-72
2021/12/30 04:56:15;;;;;;;1.60;1.10;;;12.90;98.20;;;;;;5034941;28;20482;-72
2021/12/30 04:58:42;;;;;;;1.67;1.10;;;12.90;98.20;;;;;;5057745;28;20532;-71
2021/12/30 05:01:09;;;;;;;1.60;1.10;;;12.90;98.20;;;;;;5031274;28;20486;-71
2021/12/30 05:03:35;;;;;;;1.63;1.10;;;12.90;98.20;;;;;;5039887;28;20981;-71
2021/12/30 05:06:02;;;;;;;1.60;1.00;;;12.90;98.20;;;;;;5033189;28;20454;-71
2021/12/30 05:08:30;;;;;;;1.60;1.00;;;13.00;98.20;;;;;;5056649;28;20459;-71
2021/12/30 05:10:57;;;;;;;1.67;1.10;;;13.00;98.20;;;;;;5033697;28;20486;-72
2021/12/30 05:13:24;;;;;;;1.67;1.10;;;13.00;98.20;;;;;;5042643;28;20463;-71
2021/12/30 05:15:52;;;;;;;1.67;1.10;;;13.10;98.20;;;;;;5035951;28;20458;-72
2021/12/30 05:18:20;;;;;;;1.60;1.00;;;13.10;98.20;;;;;;5043384;28;20894;-72
2021/12/30 05:20:47;;;;;;;1.60;1.10;;;13.10;98.20;;;;;;5043786;28;21064;-72
2021/12/30 05:23:14;;;;;;;1.63;1.10;;;13.20;98.20;;;;;;5037723;28;20490;-71
2021/12/30 05:25:42;;;;;;;1.67;1.00;;;13.30;98.20;;;;;;5045006;28;20720;-71
2021/12/30 05:28:09;;;;;;;1.63;1.10;;;13.30;98.20;;;;;;5025541;28;20482;-72
2021/12/30 05:30:37;;;;;;;1.60;1.00;;;13.30;98.20;;;;;;5047658;28;20483;-72
2021/12/30 05:33:05;;;;;;;1.60;1.00;;;13.30;98.20;;;;;;5049911;28;21060;-71
2021/12/30 05:35:32;;;;;;;1.63;1.00;;;13.40;98.20;;;;;;5046849;28;20458;-71
2021/12/30 05:38:01;;;;;;;1.60;1.00;;;13.40;98.20;;;;;;5049528;28;20481;-71
2021/12/30 05:40:28;;;;;;;1.70;1.20;;;13.50;98.20;;;;;;5042184;28;20573;-72
2021/12/30 05:42:56;;;;;;;1.60;1.10;;;13.50;98.20;;;;;;5049968;28;20488;-71
2021/12/30 05:45:23;;;;;;;1.60;1.00;;;13.50;98.20;;;;;;5047394;28;20466;-71
2021/12/30 05:47:52;;;;;;;1.70;1.10;;;13.60;98.20;;;;;;5034275;28;20625;-71
2021/12/30 05:50:22;;;;;;;1.70;1.10;;;13.60;98.20;;;;;;5041680;28;20518;-71
2021/12/30 05:52:49;;;;;;;1.63;1.00;;;13.60;98.20;;;;;;5032076;28;20701;-71
2021/12/30 05:55:17;;;;;;;1.70;1.10;;;13.60;98.20;;;;;;5037937;28;20469;-71
2021/12/30 05:57:44;;;;;;;1.70;1.20;;;13.70;98.20;;;;;;5032044;28;20474;-71
2021/12/30 06:00:16;;;;;;;1.67;1.10;;;13.70;98.20;;;;;;5036858;28;20883;-71
2021/12/30 06:02:43;;;;;;;1.70;1.10;;;13.70;98.20;;;;;;5042458;28;21029;-71
2021/12/30 06:05:10;;;;;;;1.70;1.10;;;13.70;98.20;;;;;;5038418;28;20474;-71
2021/12/30 06:07:38;;;;;;;1.60;1.00;;;13.70;98.20;;;;;;5045469;28;20496;-72
2021/12/30 06:10:05;;;;;;;1.70;1.10;;;13.70;98.20;;;;;;5042908;28;20486;-71
2021/12/30 06:12:33;;;;;;;1.63;1.00;;;13.80;98.20;;;;;;5045799;28;20490;-71
2021/12/30 06:15:00;;;;;;;1.63;1.00;;;13.80;98.20;;;;;;5045417;28;20458;-71
2021/12/30 06:17:28;;;;;;;1.67;1.10;;;13.80;98.20;;;;;;5046843;28;20469;-71
2021/12/30 06:19:55;;;;;;;1.60;1.10;;;13.80;98.20;;;;;;5045691;28;20990;-71
2021/12/30 06:22:22;;;;;;;1.63;1.10;;;13.80;98.20;;;;;;5044434;28;20491;-71
2021/12/30 06:24:49;;;;;;;1.70;1.17;;;13.80;98.20;;;;;;5047789;28;20691;-71
2021/12/30 06:27:16;;;;;;;1.70;1.10;;;13.90;98.20;;;;;;5022467;28;21015;-72
2021/12/30 06:29:43;;;;;;;1.67;1.10;;;13.90;98.20;;;;;;5040890;28;20490;-71
2021/12/30 06:32:10;;;;;;;1.67;1.10;;;13.90;98.20;;;;;;5042715;28;20559;-72
2021/12/30 06:34:38;;;;;;;1.70;1.10;;;13.90;98.20;;;;;;5046083;28;20495;-71
2021/12/30 06:37:05;;;;;;;1.80;1.30;;;13.90;98.20;;;;;;5042909;28;20481;-71
2021/12/30 06:39:32;;;;;;;1.63;1.10;;;13.90;98.20;;;;;;5051086;28;20768;-72
2021/12/30 06:41:59;;;;;;;1.70;1.10;;;13.90;98.20;;;;;;5031492;28;20869;-71
2021/12/30 06:44:26;;;;;;;1.63;1.00;;;14.00;98.20;;;;;;5036659;28;20776;-71
2021/12/30 06:46:57;;;;;;;1.67;1.10;;;14.00;98.20;;;;;;5035596;28;20484;-71
2021/12/30 06:49:24;;;;;;;1.67;1.10;;;14.00;98.20;;;;;;5040631;28;20521;-71
2021/12/30 06:51:53;;;;;;;1.63;1.10;;;14.00;98.20;;;;;;5031960;28;20516;-71
2021/12/30 06:54:20;;;;;;;1.70;1.20;;;14.00;98.20;;;;;;5041473;28;20504;-71
2021/12/30 06:56:47;;;;;;;1.63;1.03;;;14.00;98.20;;;;;;5033289;28;20474;-71
2021/12/30 06:59:15;;;;;;;1.70;1.10;;;14.00;98.20;;;;;;5040265;28;20880;-72
2021/12/30 07:01:42;;;;;;;2.13;1.57;;;14.00;98.20;;;;;;5040968;28;20574;-72
2021/12/30 07:04:09;;;;;;;1.70;1.30;;;14.00;98.20;;;;;;5047372;28;20459;-71
2021/12/30 07:06:36;;;;;;;1.70;1.10;;;14.00;98.20;;;;;;5042019;28;20469;-72
2021/12/30 07:09:05;;;;;;;1.67;1.10;;;14.00;98.20;;;;;;5055036;28;20504;-72
2021/12/30 07:11:32;;;;;;;1.67;1.10;;;14.00;98.20;;;;;;5037518;28;20484;-72
2021/12/30 07:13:59;;;;;;;1.63;1.10;;;14.00;98.20;;;;;;5051290;28;20465;-72
2021/12/30 07:16:26;;;;;;;1.63;1.00;;;14.10;98.20;;;;;;5029784;28;20481;-71
2021/12/30 07:18:53;;;;;;;1.60;1.10;;;14.10;98.20;;;;;;5038731;28;20474;-71
2021/12/30 07:21:20;;;;;;;1.67;1.10;;;14.10;98.20;;;;;;5031762;28;20481;-71
2021/12/30 07:23:47;;;;;;;1.67;1.10;;;14.10;98.20;;;;;;5049053;28;20843;-71
2021/12/30 07:26:15;;;;;;;1.70;1.10;;;14.10;98.20;;;;;;5032180;28;20650;-71
2021/12/30 07:28:42;;;;;;;1.70;1.07;;;14.10;98.20;;;;;;5055199;28;20469;-71
2021/12/30 07:31:09;;;;;;;1.70;1.10;;;14.10;98.20;;;;;;5031064;28;20495;-71
2021/12/30 07:33:36;;;;;;;1.63;1.00;;;14.10;98.20;;;;;;5041835;28;20458;-71
2021/12/30 07:36:05;;;;;;;1.60;1.00;;;14.10;98.20;;;;;;5030781;28;20924;-71
2021/12/30 07:38:32;;;;;;;1.63;1.10;;;14.10;98.20;;;;;;5039561;28;20565;-72
2021/12/30 07:40:59;;;;;;;1.70;1.20;;;14.10;98.20;;;;;;5034426;28;20584;-72
2021/12/30 07:43:29;;;;;;;1.70;1.10;;;14.10;98.20;;;;;;5056779;28;20517;-72
2021/12/30 07:45:56;;;;;;;1.63;1.00;;;14.10;98.20;;;;;;5031580;28;20540;-72
2021/12/30 07:48:23;;;;;;;1.63;1.00;;;14.10;98.20;;;;;;5057951;28;20461;-72
2021/12/30 07:50:50;;;;;;;1.63;1.00;;;14.10;98.20;;;;;;5033975;28;21048;-71
2021/12/30 07:53:17;;;;;;;1.67;1.00;;;14.10;98.20;;;;;;5056269;28;20930;-72
2021/12/30 07:55:44;;;;;;;1.60;1.00;;;14.10;98.20;;;;;;5041808;28;20966;-72
2021/12/30 07:58:11;;;;;;;1.60;1.03;;;14.10;98.20;;;;;;5027662;28;20572;-71
2021/12/30 08:00:40;;;;;;;1.60;1.00;;;14.10;98.20;;;;;;5044472;28;20497;-72
2021/12/30 08:03:06;;;;;;;1.70;1.10;;;14.10;98.20;;;;;;5027745;28;20482;-72
2021/12/30 08:05:33;;;;;;;1.63;1.07;;;14.10;98.20;;;;;;5039547;28;20546;-72
2021/12/30 08:08:00;;;;;;;1.63;1.10;;;14.10;98.20;;;;;;5045527;28;20979;-72
2021/12/30 08:10:29;;;;;;;1.67;1.13;;;14.10;98.20;;;;;;5041884;28;20482;-72
2021/12/30 08:12:57;;;;;;;1.63;1.07;;;14.10;98.20;;;;;;5045884;28;20481;-72
2021/12/30 08:15:24;;;;;;;1.60;1.00;;;14.10;98.20;;;;;;5038369;28;20466;-71
2021/12/30 08:17:54;;;;;;;1.63;1.10;;;14.10;98.20;;;;;;5047505;28;20992;-72
2021/12/30 08:20:22;;;;;;;1.60;1.00;;;14.10;98.20;;;;;;5043734;28;20481;-71
2021/12/30 08:22:51;;;;;;;1.60;1.00;;;14.10;98.20;;;;;;5030683;28;20482;-72
2021/12/30 08:25:19;;;;;;;1.63;1.10;;;14.10;98.20;;;;;;5043065;28;20458;-72
2021/12/30 08:27:47;;;;;;;1.63;1.00;;;14.10;98.20;;;;;;5047893;28;20513;-72
2021/12/30 08:30:16;;;;;;;1.60;1.00;;;14.10;98.20;;;;;;5041259;28;21073;-72
2021/12/30 08:32:45;;;;;;;1.63;1.00;;;14.10;98.20;;;;;;5028429;28;20478;-72
2021/12/30 08:35:15;;;;;;;1.70;1.10;;;14.10;98.20;;;;;;5037761;28;20463;-72
2021/12/30 08:37:43;;;;;;;1.70;1.10;;;14.10;98.20;;;;;;5044068;28;20900;-72
2021/12/30 08:40:12;;;;;;;1.60;1.00;;;14.20;98.20;;;;;;5045880;28;20488;-72
2021/12/30 08:42:39;;;;;;;1.60;1.00;;;14.20;98.20;;;;;;5039285;28;20579;-71
2021/12/30 08:45:08;;;;;;;1.70;1.10;;;14.20;98.20;;;;;;5044585;28;20464;-71
2021/12/30 08:47:37;;;;;;;1.63;1.00;;;14.20;98.20;;;;;;5045907;28;20949;-71
2021/12/30 08:50:05;;;;;;;1.63;1.10;;;14.20;98.20;;;;;;5042257;28;20861;-71
2021/12/30 08:52:34;;;;;;;1.60;1.00;;;14.20;98.20;;;;;;5043513;28;20853;-73
2021/12/30 08:55:04;;;;;;;1.60;1.00;;;14.20;98.20;;;;;;5045055;28;20504;-73
2021/12/30 08:57:31;;;;;;;1.63;1.07;;;14.20;98.20;;;;;;5049541;28;20481;-72
2021/12/30 08:59:58;;;;;;;1.63;1.00;;;14.20;98.20;;;;;;5046756;28;20504;-72
2021/12/30 09:02:25;;;;;;;1.70;1.10;;;14.20;98.20;;;;;;5044581;28;20564;-72
2021/12/30 09:04:52;;;;;;;1.67;1.10;;;14.20;98.20;;;;;;5047856;28;20561;-72
2021/12/30 09:07:19;;;;;;;1.60;1.00;;;14.20;98.20;;;;;;5047968;28;20877;-72
2021/12/30 09:09:48;;;;;;;1.63;1.03;;;14.20;98.20;;;;;;5049432;28;20458;-72
2021/12/30 09:12:15;;;;;;;1.60;1.00;;;14.20;98.20;;;;;;5042592;28;20481;-72
2021/12/30 09:14:42;;;;;;;1.70;1.10;;;14.20;98.20;;;;;;5049702;28;20868;-71
2021/12/30 09:17:09;;;;;;;1.60;1.10;;;14.20;98.20;;;;;;5044728;28;20485;-72
2021/12/30 09:19:36;;;;;;;1.60;1.10;;;14.30;98.20;;;;;;5039891;28;20484;-76
2021/12/30 09:22:04;;;;;;;1.70;1.20;;;14.30;98.20;;;;;;5038743;28;20477;-73
2021/12/30 09:24:31;;;;;;;1.70;1.10;;;14.30;98.20;;;;;;5046749;28;20494;-74
2021/12/30 09:27:00;;;;;;;1.70;1.10;;;14.30;98.20;;;;;;5037736;28;20543;-71
2021/12/30 09:29:27;;;;;;;1.70;1.00;;;14.40;98.20;;;;;;5049008;28;20556;-72
2021/12/30 09:31:54;;;;;;;1.70;1.10;;;14.30;98.20;;;;;;5021833;28;20573;-72
2021/12/30 09:34:21;;;;;;;1.60;1.10;;;14.40;98.20;;;;;;5038551;28;20466;-72
2021/12/30 09:36:49;;;;;;;1.67;1.07;;;14.40;98.20;;;;;;5038871;28;20481;-72
2021/12/30 09:39:16;;;;;;;1.63;1.00;;;14.40;98.20;;;;;;5041665;28;21018;-72
2021/12/30 09:41:45;;;;;;;1.60;1.00;;;14.40;98.20;;;;;;5020929;28;20574;-72
2021/12/30 09:44:17;;;;;;;1.63;1.10;;;14.50;98.20;;;;;;5015315;28;20492;-72
2021/12/30 09:46:45;;;;;;;1.67;1.10;;;14.50;98.20;;;;;;5014780;28;20513;-72
2021/12/30 09:49:17;;;;;;;1.63;1.10;;;14.50;98.20;;;;;;5029254;28;20542;-72
2021/12/30 09:51:45;;;;;;;1.60;1.03;;;14.60;98.20;;;;;;5011207;28;20483;-71
2021/12/30 09:54:13;;;;;;;1.67;1.00;;;14.60;98.20;;;;;;5019188;28;20464;-72
2021/12/30 09:56:40;;;;;;;1.63;1.00;;;14.70;98.20;;;;;;5018653;28;20553;-72
2021/12/30 09:59:08;;;;;;;1.67;1.10;;;14.70;98.20;;;;;;5024706;28;21009;-72
2021/12/30 10:01:38;;;;;;;1.70;1.20;;;14.70;98.20;;;;;;5015853;28;20492;-72
2021/12/30 10:04:07;;;;;;;1.60;1.00;;;14.80;98.20;;;;;;5028316;28;20724;-72
2021/12/30 10:06:35;;;;;;;1.63;1.10;;;14.80;98.20;;;;;;5018739;28;20578;-72
2021/12/30 10:09:11;;;;;;;1.70;1.10;;;14.80;98.20;;;;;;5030103;28;20463;-72
2021/12/30 10:11:46;;;;;;;1.67;1.10;;;14.80;98.20;;;;;;5014311;28;20491;-72
2021/12/30 10:14:13;;;;;;;1.70;1.00;;;14.90;98.20;;;;;;5037390;28;20466;-72
2021/12/30 10:16:42;;;;;;;1.67;1.00;;;14.90;98.20;;;;;;5027602;28;20569;-72
2021/12/30 10:19:10;;;;;;;1.70;1.10;;;14.90;98.20;;;;;;5036528;28;20551;-72
2021/12/30 10:21:40;;;;;;;1.60;1.00;;;14.90;98.20;;;;;;5033830;28;20953;-72
2021/12/30 10:24:10;;;;;;;2.70;2.50;;;15.00;98.20;;;;;;5049257;28;20486;-72
2021/12/30 10:26:51;;;;;;;1.63;1.03;;;15.00;98.20;;;;;;5024582;28;20862;-73
2021/12/30 10:29:18;;;;;;;1.70;1.00;;;15.00;98.20;;;;;;5038979;28;20462;-72
2021/12/30 10:31:48;;;;;;;1.70;1.10;;;15.00;98.20;;;;;;5027084;28;20540;-72
2021/12/30 10:34:16;;;;;;;1.63;1.00;;;15.00;98.20;;;;;;5031959;28;20806;-73
2021/12/30 10:36:45;;;;;;;1.60;1.00;;;15.00;98.20;;;;;;5037956;28;20484;-73
2021/12/30 10:39:19;;;;;;;1.63;1.00;;;15.00;98.20;;;;;;5047319;28;20838;-73
2021/12/30 10:41:47;;;;;;;1.67;1.00;;;15.10;98.20;;;;;;5018464;28;20494;-73
2021/12/30 10:44:15;;;;;;;1.60;1.00;;;15.10;98.20;;;;;;5014277;28;20599;-72
2021/12/30 10:46:42;;;;;;;1.60;1.00;;;15.10;98.20;;;;;;5019298;28;20573;-70
2021/12/30 10:49:12;;;;;;;1.70;1.10;;;15.20;98.20;;;;;;5023263;28;20458;-70
2021/12/30 10:51:42;;;;;;;1.70;1.10;;;15.20;98.20;;;;;;5016972;28;20563;-71
2021/12/30 10:54:15;;;;;;;1.70;1.07;;;15.20;98.20;;;;;;5026763;28;20463;-71
2021/12/30 10:56:43;;;;;;;1.63;0.90;;;15.20;98.20;;;;;;5014629;28;20504;-71
2021/12/30 10:59:17;;;;;;;1.70;1.00;;;15.30;98.20;;;;;;5028234;28;20554;-71
2021/12/30 11:01:46;;;;;;;2.10;1.77;;;15.30;98.20;;;;;;5013144;28;21007;-71
2021/12/30 11:04:19;;;;;;;1.67;1.00;;;15.30;98.20;;;;;;5029160;28;22050;-74
2021/12/30 11:06:47;;;;;;;1.60;1.00;;;15.30;98.20;;;;;;5019267;28;20578;-70
2021/12/30 11:09:19;;;;;;;1.60;0.90;;;15.40;98.20;;;;;;5027910;28;20542;-70
2021/12/30 11:11:52;;;;;;;1.70;1.00;;;15.40;98.20;;;;;;5018039;28;20552;-70
2021/12/30 11:14:22;;;;;;;1.70;1.10;;;15.40;98.20;;;;;;5028175;28;20743;-70
2021/12/30 11:17:04;;;;;;;1.70;1.07;;;15.40;98.20;;;;;;5017029;28;20482;-71
2021/12/30 11:19:35;;;;;;;1.70;1.00;;;15.40;98.20;;;;;;5023019;28;21027;-70
2021/12/30 11:22:06;;;;;;;1.67;1.10;;;15.40;98.20;;;;;;5010699;28;20483;-70
2021/12/30 11:24:34;;;;;;;1.70;1.10;;;15.50;98.20;;;;;;5022379;28;20911;-70
2021/12/30 11:27:03;;;;;;;1.70;1.10;;;15.50;98.20;;;;;;5020469;28;20482;-70
2021/12/30 11:29:31;;;;;;;1.63;1.00;;;15.40;98.20;;;;;;5025544;28;20949;-70
2021/12/30 11:31:58;;;;;;;1.67;1.00;;;15.50;98.20;;;;;;5015636;28;20492;-70
2021/12/30 11:34:26;;;;;;;1.67;1.07;;;15.50;98.20;;;;;;5026954;28;20466;-70
2021/12/30 11:36:55;;;;;;;1.67;1.00;;;15.50;98.20;;;;;;5012496;28;20874;-73
2021/12/30 11:39:24;;;;;;;1.70;1.10;;;15.40;98.20;;;;;;5026115;28;20470;-71
2021/12/30 11:41:57;;;;;;;1.60;1.00;;;15.40;98.20;;;;;;5019174;28;20489;-71
2021/12/30 11:44:40;;;;;;;1.60;1.00;;;15.40;98.20;;;;;;5028024;28;20486;-71
2021/12/30 11:47:09;;;;;;;1.60;1.00;;;15.40;98.20;;;;;;5028925;28;20569;-72
2021/12/30 11:49:54;;;;;;;1.70;1.10;;;15.40;98.20;;;;;;5043315;28;20468;-72
2021/12/30 11:52:48;;;;;;;1.70;1.10;;;15.40;98.20;;;;;;5022034;28;20487;-71
2021/12/30 11:55:41;;;;;;;1.63;1.00;;;15.40;98.20;;;;;;5038245;28;20549;-72
2021/12/30 11:58:32;;;;;;;1.60;1.00;;;15.40;98.20;;;;;;5043068;28;20514;-72
2021/12/30 12:01:00;;;;;;;1.67;1.00;;;15.40;98.20;;;;;;5026553;28;20481;-72
2021/12/30 12:03:28;;;;;;;1.63;1.00;;;15.40;98.20;;;;;;5015228;28;20470;-72
2021/12/30 12:05:56;;;;;;;1.60;1.00;;;15.40;98.20;;;;;;5008275;28;20562;-72
2021/12/30 12:08:29;;;;;;;1.70;1.20;;;15.40;98.20;;;;;;5030467;28;20467;-72
2021/12/30 12:11:13;;;;;;;1.70;1.30;;;15.40;98.20;;;;;;5008573;28;20568;-70
2021/12/30 12:13:42;;;;;;;1.60;1.00;;;15.40;98.20;;;;;;5033206;28;20574;-71
2021/12/30 12:16:09;;;;;;;1.67;1.00;;;15.50;98.20;;;;;;5017093;28;20484;-71
2021/12/30 12:18:37;;;;;;;6.40;4.60;;;15.50;98.20;;;;;;5033957;28;20474;-70
2021/12/30 12:21:06;;;;;;;1.70;1.10;;;15.50;98.20;;;;;;5006224;28;20498;-71
2021/12/30 12:23:39;;;;;;;1.60;1.00;;;15.50;98.20;;;;;;5024514;28;20558;-71
2021/12/30 12:26:13;;;;;;;1.60;1.00;;;15.60;98.20;;;;;;5009013;28;20470;-71
2021/12/30 12:28:41;;;;;;;1.60;1.00;;;15.60;98.20;;;;;;5031221;28;20474;-71
2021/12/30 12:31:11;;;;;;;1.60;1.00;;;15.60;98.20;;;;;;5007318;28;20621;-71
2021/12/30 12:33:40;;;;;;;1.60;1.00;;;15.60;98.20;;;;;;5024047;28;20590;-71
2021/12/30 12:36:15;;;;;;;1.60;1.00;;;15.60;98.20;;;;;;5003434;28;20471;-71
2021/12/30 12:38:46;;;;;;;1.70;1.10;;;15.60;98.20;;;;;;5024629;28;20463;-71
2021/12/30 12:41:20;;;;;;;1.67;1.00;;;15.60;98.20;;;;;;5004719;28;20493;-71
2021/12/30 12:43:52;;;;;;;1.60;1.00;;;15.60;98.20;;;;;;5027188;28;20499;-71
2021/12/30 12:46:37;;;;;;;2.00;1.73;;;15.60;98.20;;;;;;5004896;28;20475;-71
2021/12/30 12:49:06;;;;;;;1.60;1.00;;;15.60;98.20;;;;;;5018347;28;21215;-71
2021/12/30 12:51:34;;;;;;;1.63;1.00;;;15.60;98.20;;;;;;5018298;28;20642;-71
2021/12/30 12:54:05;;;;;;;1.60;1.00;;;15.60;98.20;;;;;;5042191;28;20522;-71
2021/12/30 12:56:36;;;;;;;1.60;1.00;;;15.60;98.20;;;;;;5023653;28;20489;-71